sensor_id;sensor_type;location;lat;lon;timestamp;P1;durP1;ratioP1;P2;durP2;ratioP2
7989;SDS011;4040;42.848;23.034;2022-09-25T00:05:08;3.27;;;2.60;;
7989;SDS011;4040;42.848;23.034;2022-09-25T00:10:59;3.20;;;2.60;;
7989;SDS011;4040;42.848;23.034;2022-09-25T00:16:52;10.10;;;7.80;;
7989;SDS011;4040;42.848;23.034;2022-09-25T00:22:40;15.67;;;10.80;;
7989;SDS011;4040;42.848;23.034;2022-09-25T00:28:30;9.53;;;5.13;;
7989;SDS011;4040;42.848;23.034;2022-09-25T00:34:19;4.30;;;2.97;;
7989;SDS011;4040;42.848;23.034;2022-09-25T00:40:08;3.13;;;2.57;;
7989;SDS011;4040;42.848;23.034;2022-09-25T00:45:58;4.23;;;2.33;;
7989;SDS011;4040;42.848;23.034;2022-09-25T00:51:49;3.10;;;2.30;;
7989;SDS011;4040;42.848;23.034;2022-09-25T00:57:44;2.17;;;1.73;;
7989;SDS011;4040;42.848;23.034;2022-09-25T01:03:37;2.17;;;1.97;;
7989;SDS011;4040;42.848;23.034;2022-09-25T01:09:32;2.30;;;1.77;;
7989;SDS011;4040;42.848;23.034;2022-09-25T01:15:22;2.97;;;2.20;;
7989;SDS011;4040;42.848;23.034;2022-09-25T01:21:21;2.13;;;1.93;;
7989;SDS011;4040;42.848;23.034;2022-09-25T01:33:34;2.90;;;2.50;;
7989;SDS011;4040;42.848;23.034;2022-09-25T01:39:30;3.07;;;2.63;;
7989;SDS011;4040;42.848;23.034;2022-09-25T01:45:26;2.47;;;2.03;;
7989;SDS011;4040;42.848;23.034;2022-09-25T01:51:23;3.07;;;2.43;;
7989;SDS011;4040;42.848;23.034;2022-09-25T01:57:18;3.73;;;2.50;;
7989;SDS011;4040;42.848;23.034;2022-09-25T02:03:11;2.13;;;2.00;;
7989;SDS011;4040;42.848;23.034;2022-09-25T02:09:07;3.03;;;2.60;;
7989;SDS011;4040;42.848;23.034;2022-09-25T02:15:01;2.97;;;2.57;;
7989;SDS011;4040;42.848;23.034;2022-09-25T02:20:55;2.93;;;2.30;;
7989;SDS011;4040;42.848;23.034;2022-09-25T02:26:50;3.37;;;2.23;;
7989;SDS011;4040;42.848;23.034;2022-09-25T02:32:39;2.90;;;2.17;;
7989;SDS011;4040;42.848;23.034;2022-09-25T02:38:28;2.07;;;1.70;;
7989;SDS011;4040;42.848;23.034;2022-09-25T02:44:20;2.60;;;2.27;;
7989;SDS011;4040;42.848;23.034;2022-09-25T02:50:20;2.77;;;2.27;;
7989;SDS011;4040;42.848;23.034;2022-09-25T02:56:14;3.60;;;2.33;;
7989;SDS011;4040;42.848;23.034;2022-09-25T03:02:09;3.10;;;2.70;;
7989;SDS011;4040;42.848;23.034;2022-09-25T03:12:01;2.50;;;2.13;;
7989;SDS011;4040;42.848;23.034;2022-09-25T03:17:52;8.33;;;2.30;;
7989;SDS011;4040;42.848;23.034;2022-09-25T03:23:50;2.27;;;2.07;;
7989;SDS011;4040;42.848;23.034;2022-09-25T03:29:42;2.20;;;1.77;;
7989;SDS011;4040;42.848;23.034;2022-09-25T03:35:32;2.63;;;2.10;;
7989;SDS011;4040;42.848;23.034;2022-09-25T03:41:21;2.50;;;2.30;;
7989;SDS011;4040;42.848;23.034;2022-09-25T03:47:20;4.00;;;2.80;;
7989;SDS011;4040;42.848;23.034;2022-09-25T03:53:10;2.57;;;2.10;;
7989;SDS011;4040;42.848;23.034;2022-09-25T03:58:59;2.63;;;2.07;;
7989;SDS011;4040;42.848;23.034;2022-09-25T04:04:48;4.10;;;2.67;;
7989;SDS011;4040;42.848;23.034;2022-09-25T04:14:39;5.57;;;3.53;;
7989;SDS011;4040;42.848;23.034;2022-09-25T04:20:32;3.33;;;2.87;;
7989;SDS011;4040;42.848;23.034;2022-09-25T04:26:21;3.50;;;2.90;;
7989;SDS011;4040;42.848;23.034;2022-09-25T04:32:11;3.73;;;2.77;;
7989;SDS011;4040;42.848;23.034;2022-09-25T04:38:17;2.70;;;2.50;;
7989;SDS011;4040;42.848;23.034;2022-09-25T04:44:05;2.83;;;2.47;;
7989;SDS011;4040;42.848;23.034;2022-09-25T04:49:55;2.33;;;1.87;;
7989;SDS011;4040;42.848;23.034;2022-09-25T04:55:44;2.67;;;2.13;;
7989;SDS011;4040;42.848;23.034;2022-09-25T05:01:33;6.00;;;3.60;;
7989;SDS011;4040;42.848;23.034;2022-09-25T05:07:23;4.50;;;3.00;;
7989;SDS011;4040;42.848;23.034;2022-09-25T05:17:34;4.83;;;3.57;;
7989;SDS011;4040;42.848;23.034;2022-09-25T05:23:24;7.07;;;4.50;;
7989;SDS011;4040;42.848;23.034;2022-09-25T05:29:12;5.83;;;3.57;;
7989;SDS011;4040;42.848;23.034;2022-09-25T05:35:01;4.40;;;2.80;;
7989;SDS011;4040;42.848;23.034;2022-09-25T05:40:52;5.17;;;3.90;;
7989;SDS011;4040;42.848;23.034;2022-09-25T05:46:41;9.27;;;5.17;;
7989;SDS011;4040;42.848;23.034;2022-09-25T05:52:29;10.33;;;5.10;;
7989;SDS011;4040;42.848;23.034;2022-09-25T05:58:19;12.90;;;5.30;;
7989;SDS011;4040;42.848;23.034;2022-09-25T06:04:09;9.17;;;5.90;;
7989;SDS011;4040;42.848;23.034;2022-09-25T06:09:57;6.40;;;4.10;;
7989;SDS011;4040;42.848;23.034;2022-09-25T06:20:09;7.50;;;4.33;;
7989;SDS011;4040;42.848;23.034;2022-09-25T06:25:59;7.30;;;4.03;;
7989;SDS011;4040;42.848;23.034;2022-09-25T06:31:50;6.73;;;4.33;;
7989;SDS011;4040;42.848;23.034;2022-09-25T06:37:40;5.95;;;4.13;;
7989;SDS011;4040;42.848;23.034;2022-09-25T06:43:29;8.00;;;4.97;;
7989;SDS011;4040;42.848;23.034;2022-09-25T06:49:17;7.43;;;4.75;;
7989;SDS011;4040;42.848;23.034;2022-09-25T06:55:08;6.18;;;4.43;;
7989;SDS011;4040;42.848;23.034;2022-09-25T07:00:56;5.72;;;4.55;;
7989;SDS011;4040;42.848;23.034;2022-09-25T07:06:45;5.53;;;4.78;;
7989;SDS011;4040;42.848;23.034;2022-09-25T07:12:36;5.10;;;3.30;;
7989;SDS011;4040;42.848;23.034;2022-09-25T07:22:47;8.52;;;5.50;;
7989;SDS011;4040;42.848;23.034;2022-09-25T07:28:37;5.55;;;3.95;;
7989;SDS011;4040;42.848;23.034;2022-09-25T07:34:26;6.63;;;4.50;;
7989;SDS011;4040;42.848;23.034;2022-09-25T07:40:15;5.30;;;3.75;;
7989;SDS011;4040;42.848;23.034;2022-09-25T07:46:05;3.47;;;2.72;;
7989;SDS011;4040;42.848;23.034;2022-09-25T07:51:54;6.35;;;3.47;;
7989;SDS011;4040;42.848;23.034;2022-09-25T07:57:43;4.15;;;2.80;;
7989;SDS011;4040;42.848;23.034;2022-09-25T08:03:33;5.00;;;3.13;;
7989;SDS011;4040;42.848;23.034;2022-09-25T08:09:21;4.35;;;2.83;;
7989;SDS011;4040;42.848;23.034;2022-09-25T08:15:10;4.18;;;2.78;;
7989;SDS011;4040;42.848;23.034;2022-09-25T08:25:23;2.95;;;2.53;;
7989;SDS011;4040;42.848;23.034;2022-09-25T08:31:12;2.40;;;2.08;;
7989;SDS011;4040;42.848;23.034;2022-09-25T08:37:01;2.10;;;1.90;;
7989;SDS011;4040;42.848;23.034;2022-09-25T08:42:52;2.75;;;2.20;;
7989;SDS011;4040;42.848;23.034;2022-09-25T08:48:42;3.22;;;2.58;;
7989;SDS011;4040;42.848;23.034;2022-09-25T08:54:49;4.47;;;2.70;;
7989;SDS011;4040;42.848;23.034;2022-09-25T09:00:39;3.53;;;2.65;;
7989;SDS011;4040;42.848;23.034;2022-09-25T09:06:28;2.53;;;2.00;;
7989;SDS011;4040;42.848;23.034;2022-09-25T09:12:20;4.43;;;3.10;;
7989;SDS011;4040;42.848;23.034;2022-09-25T09:18:15;2.80;;;2.05;;
7989;SDS011;4040;42.848;23.034;2022-09-25T09:34:55;1.98;;;1.85;;
7989;SDS011;4040;42.848;23.034;2022-09-25T09:47:17;4.40;;;2.05;;
7989;SDS011;4040;42.848;23.034;2022-09-25T09:53:22;3.88;;;2.28;;
7989;SDS011;4040;42.848;23.034;2022-09-25T09:59:17;3.13;;;2.35;;
7989;SDS011;4040;42.848;23.034;2022-09-25T10:05:11;1.67;;;1.58;;
7989;SDS011;4040;42.848;23.034;2022-09-25T10:11:09;2.38;;;1.52;;
7989;SDS011;4040;42.848;23.034;2022-09-25T10:17:02;3.00;;;2.33;;
7989;SDS011;4040;42.848;23.034;2022-09-25T10:22:52;2.20;;;1.70;;
7989;SDS011;4040;42.848;23.034;2022-09-25T10:28:44;2.55;;;1.50;;
7989;SDS011;4040;42.848;23.034;2022-09-25T10:34:33;1.23;;;1.13;;
7989;SDS011;4040;42.848;23.034;2022-09-25T10:40:26;1.50;;;1.40;;
7989;SDS011;4040;42.848;23.034;2022-09-25T10:46:24;1.67;;;1.30;;
7989;SDS011;4040;42.848;23.034;2022-09-25T10:52:45;2.00;;;1.55;;
7989;SDS011;4040;42.848;23.034;2022-09-25T10:58:37;3.40;;;1.40;;
7989;SDS011;4040;42.848;23.034;2022-09-25T11:04:30;1.30;;;1.20;;
7989;SDS011;4040;42.848;23.034;2022-09-25T11:10:21;1.27;;;1.17;;
7989;SDS011;4040;42.848;23.034;2022-09-25T11:16:12;1.55;;;1.40;;
7989;SDS011;4040;42.848;23.034;2022-09-25T11:22:09;1.33;;;1.23;;
7989;SDS011;4040;42.848;23.034;2022-09-25T11:28:18;1.40;;;1.30;;
7989;SDS011;4040;42.848;23.034;2022-09-25T11:34:17;1.20;;;1.10;;
7989;SDS011;4040;42.848;23.034;2022-09-25T11:40:19;2.00;;;1.40;;
7989;SDS011;4040;42.848;23.034;2022-09-25T11:46:38;1.90;;;1.40;;
7989;SDS011;4040;42.848;23.034;2022-09-25T11:52:37;1.60;;;1.20;;
7989;SDS011;4040;42.848;23.034;2022-09-25T11:58:40;2.13;;;1.20;;
7989;SDS011;4040;42.848;23.034;2022-09-25T12:04:44;2.30;;;1.40;;
7989;SDS011;4040;42.848;23.034;2022-09-25T12:10:45;1.25;;;1.15;;
7989;SDS011;4040;42.848;23.034;2022-09-25T12:16:45;1.70;;;1.13;;
7989;SDS011;4040;42.848;23.034;2022-09-25T12:22:42;2.95;;;1.92;;
7989;SDS011;4040;42.848;23.034;2022-09-25T12:28:42;2.30;;;1.60;;
7989;SDS011;4040;42.848;23.034;2022-09-25T12:34:58;1.83;;;1.50;;
7989;SDS011;4040;42.848;23.034;2022-09-25T12:41:03;3.80;;;2.50;;
7989;SDS011;4040;42.848;23.034;2022-09-25T12:46:59;2.63;;;1.70;;
7989;SDS011;4040;42.848;23.034;2022-09-25T12:52:54;2.30;;;1.70;;
7989;SDS011;4040;42.848;23.034;2022-09-25T12:58:53;1.90;;;1.70;;
7989;SDS011;4040;42.848;23.034;2022-09-25T13:04:51;1.80;;;1.70;;
7989;SDS011;4040;42.848;23.034;2022-09-25T13:10:51;1.52;;;1.27;;
7989;SDS011;4040;42.848;23.034;2022-09-25T13:16:42;1.42;;;1.33;;
7989;SDS011;4040;42.848;23.034;2022-09-25T13:22:34;6.40;;;4.47;;
7989;SDS011;4040;42.848;23.034;2022-09-25T13:28:31;4.88;;;3.00;;
7989;SDS011;4040;42.848;23.034;2022-09-25T13:34:23;4.72;;;1.60;;
7989;SDS011;4040;42.848;23.034;2022-09-25T13:40:14;1.05;;;0.85;;
7989;SDS011;4040;42.848;23.034;2022-09-25T13:46:24;2.03;;;1.70;;
7989;SDS011;4040;42.848;23.034;2022-09-25T13:52:27;9.95;;;6.57;;
7989;SDS011;4040;42.848;23.034;2022-09-25T13:58:16;3.22;;;1.83;;
7989;SDS011;4040;42.848;23.034;2022-09-25T14:04:19;2.08;;;1.60;;
7989;SDS011;4040;42.848;23.034;2022-09-25T14:10:13;3.25;;;1.95;;
7989;SDS011;4040;42.848;23.034;2022-09-25T14:16:16;2.47;;;1.63;;
7989;SDS011;4040;42.848;23.034;2022-09-25T14:22:16;2.45;;;1.45;;
7989;SDS011;4040;42.848;23.034;2022-09-25T14:28:31;6.88;;;3.20;;
7989;SDS011;4040;42.848;23.034;2022-09-25T14:34:27;4.82;;;2.33;;
7989;SDS011;4040;42.848;23.034;2022-09-25T14:40:28;2.75;;;1.80;;
7989;SDS011;4040;42.848;23.034;2022-09-25T14:46:21;4.68;;;2.53;;
7989;SDS011;4040;42.848;23.034;2022-09-25T14:52:12;3.42;;;2.10;;
7989;SDS011;4040;42.848;23.034;2022-09-25T14:58:07;3.35;;;2.58;;
7989;SDS011;4040;42.848;23.034;2022-09-25T15:04:02;8.80;;;5.28;;
7989;SDS011;4040;42.848;23.034;2022-09-25T15:09:52;16.77;;;9.30;;
7989;SDS011;4040;42.848;23.034;2022-09-25T15:15:45;7.20;;;5.32;;
7989;SDS011;4040;42.848;23.034;2022-09-25T15:21:49;7.47;;;4.95;;
7989;SDS011;4040;42.848;23.034;2022-09-25T15:27:39;6.53;;;4.10;;
7989;SDS011;4040;42.848;23.034;2022-09-25T15:33:31;6.70;;;4.15;;
7989;SDS011;4040;42.848;23.034;2022-09-25T15:39:23;10.32;;;5.70;;
7989;SDS011;4040;42.848;23.034;2022-09-25T15:45:27;40.75;;;19.00;;
7989;SDS011;4040;42.848;23.034;2022-09-25T15:51:24;6.60;;;3.85;;
7989;SDS011;4040;42.848;23.034;2022-09-25T15:57:24;5.43;;;2.60;;
7989;SDS011;4040;42.848;23.034;2022-09-25T16:03:16;21.60;;;11.05;;
7989;SDS011;4040;42.848;23.034;2022-09-25T16:09:29;28.10;;;12.00;;
7989;SDS011;4040;42.848;23.034;2022-09-25T16:15:42;16.05;;;8.23;;
7989;SDS011;4040;42.848;23.034;2022-09-25T16:21:33;36.00;;;16.60;;
7989;SDS011;4040;42.848;23.034;2022-09-25T16:31:29;19.85;;;10.45;;
7989;SDS011;4040;42.848;23.034;2022-09-25T16:37:19;9.85;;;6.55;;
7989;SDS011;4040;42.848;23.034;2022-09-25T16:43:23;5.68;;;3.78;;
7989;SDS011;4040;42.848;23.034;2022-09-25T16:49:14;9.77;;;5.38;;
7989;SDS011;4040;42.848;23.034;2022-09-25T16:55:06;11.35;;;5.65;;
7989;SDS011;4040;42.848;23.034;2022-09-25T17:00:58;13.13;;;6.93;;
7989;SDS011;4040;42.848;23.034;2022-09-25T17:06:51;23.98;;;12.13;;
7989;SDS011;4040;42.848;23.034;2022-09-25T17:12:43;21.77;;;12.55;;
7989;SDS011;4040;42.848;23.034;2022-09-25T17:18:33;16.70;;;8.48;;
7989;SDS011;4040;42.848;23.034;2022-09-25T17:24:24;18.98;;;10.27;;
7989;SDS011;4040;42.848;23.034;2022-09-25T17:34:38;84.97;;;27.70;;
7989;SDS011;4040;42.848;23.034;2022-09-25T17:40:28;50.83;;;21.77;;
7989;SDS011;4040;42.848;23.034;2022-09-25T17:46:19;55.17;;;23.80;;
7989;SDS011;4040;42.848;23.034;2022-09-25T17:52:08;13.77;;;6.77;;
7989;SDS011;4040;42.848;23.034;2022-09-25T17:58:03;22.77;;;9.80;;
7989;SDS011;4040;42.848;23.034;2022-09-25T18:03:52;15.50;;;8.00;;
7989;SDS011;4040;42.848;23.034;2022-09-25T18:09:42;30.30;;;15.10;;
7989;SDS011;4040;42.848;23.034;2022-09-25T18:15:32;30.23;;;12.97;;
7989;SDS011;4040;42.848;23.034;2022-09-25T18:21:23;10.50;;;6.93;;
7989;SDS011;4040;42.848;23.034;2022-09-25T18:27:32;18.10;;;9.63;;
7989;SDS011;4040;42.848;23.034;2022-09-25T18:37:44;18.40;;;11.03;;
7989;SDS011;4040;42.848;23.034;2022-09-25T18:43:32;11.60;;;7.33;;
7989;SDS011;4040;42.848;23.034;2022-09-25T18:49:21;14.40;;;6.47;;
7989;SDS011;4040;42.848;23.034;2022-09-25T18:55:14;7.60;;;5.30;;
7989;SDS011;4040;42.848;23.034;2022-09-25T19:01:04;9.90;;;4.80;;
7989;SDS011;4040;42.848;23.034;2022-09-25T19:06:53;6.70;;;4.23;;
7989;SDS011;4040;42.848;23.034;2022-09-25T19:12:43;8.40;;;4.43;;
7989;SDS011;4040;42.848;23.034;2022-09-25T19:18:32;4.50;;;3.70;;
7989;SDS011;4040;42.848;23.034;2022-09-25T19:24:21;7.27;;;4.43;;
7989;SDS011;4040;42.848;23.034;2022-09-25T19:30:12;12.90;;;6.27;;
7989;SDS011;4040;42.848;23.034;2022-09-25T19:40:22;8.70;;;5.57;;
7989;SDS011;4040;42.848;23.034;2022-09-25T19:46:26;19.10;;;9.47;;
7989;SDS011;4040;42.848;23.034;2022-09-25T19:52:15;12.60;;;6.53;;
7989;SDS011;4040;42.848;23.034;2022-09-25T19:58:06;25.57;;;8.90;;
7989;SDS011;4040;42.848;23.034;2022-09-25T20:03:56;27.07;;;11.33;;
7989;SDS011;4040;42.848;23.034;2022-09-25T20:09:45;17.47;;;8.13;;
7989;SDS011;4040;42.848;23.034;2022-09-25T20:15:33;27.27;;;9.67;;
7989;SDS011;4040;42.848;23.034;2022-09-25T20:21:24;18.50;;;7.27;;
7989;SDS011;4040;42.848;23.034;2022-09-25T20:27:14;15.03;;;7.27;;
7989;SDS011;4040;42.848;23.034;2022-09-25T20:33:02;29.93;;;13.13;;
7989;SDS011;4040;42.848;23.034;2022-09-25T20:43:14;47.10;;;23.77;;
7989;SDS011;4040;42.848;23.034;2022-09-25T20:49:03;16.30;;;6.77;;
7989;SDS011;4040;42.848;23.034;2022-09-25T20:54:52;13.33;;;6.33;;
7989;SDS011;4040;42.848;23.034;2022-09-25T21:00:43;8.40;;;4.20;;
7989;SDS011;4040;42.848;23.034;2022-09-25T21:06:33;3.90;;;3.00;;
7989;SDS011;4040;42.848;23.034;2022-09-25T21:12:23;3.63;;;2.80;;
7989;SDS011;4040;42.848;23.034;2022-09-25T21:18:13;7.00;;;4.07;;
7989;SDS011;4040;42.848;23.034;2022-09-25T21:24:01;5.70;;;3.80;;
7989;SDS011;4040;42.848;23.034;2022-09-25T21:29:50;6.27;;;3.20;;
7989;SDS011;4040;42.848;23.034;2022-09-25T21:35:41;6.67;;;4.60;;
7989;SDS011;4040;42.848;23.034;2022-09-25T21:45:57;9.30;;;3.83;;
7989;SDS011;4040;42.848;23.034;2022-09-25T21:51:48;4.93;;;2.50;;
7989;SDS011;4040;42.848;23.034;2022-09-25T21:57:38;4.00;;;2.73;;
7989;SDS011;4040;42.848;23.034;2022-09-25T22:08:27;3.27;;;2.40;;
7989;SDS011;4040;42.848;23.034;2022-09-25T22:14:17;4.80;;;2.80;;
7989;SDS011;4040;42.848;23.034;2022-09-25T22:20:07;4.30;;;2.77;;
7989;SDS011;4040;42.848;23.034;2022-09-25T22:26:00;3.10;;;2.27;;
7989;SDS011;4040;42.848;23.034;2022-09-25T22:31:48;5.03;;;2.73;;
7989;SDS011;4040;42.848;23.034;2022-09-25T22:37:37;4.40;;;2.77;;
7989;SDS011;4040;42.848;23.034;2022-09-25T22:43:27;2.60;;;2.10;;
7989;SDS011;4040;42.848;23.034;2022-09-25T22:49:16;2.50;;;2.07;;
7989;SDS011;4040;42.848;23.034;2022-09-25T22:55:05;2.60;;;1.70;;
7989;SDS011;4040;42.848;23.034;2022-09-25T23:00:56;3.13;;;2.10;;
7989;SDS011;4040;42.848;23.034;2022-09-25T23:03:24;3.37;;;2.60;;
7989;SDS011;4040;42.848;23.034;2022-09-25T23:09:14;6.70;;;3.37;;
7989;SDS011;4040;42.848;23.034;2022-09-25T23:15:04;3.87;;;3.20;;
7989;SDS011;4040;42.848;23.034;2022-09-25T23:20:56;5.83;;;4.33;;
7989;SDS011;4040;42.848;23.034;2022-09-25T23:26:45;7.23;;;4.77;;
7989;SDS011;4040;42.848;23.034;2022-09-25T23:32:34;8.03;;;4.33;;
7989;SDS011;4040;42.848;23.034;2022-09-25T23:38:24;6.20;;;2.87;;
7989;SDS011;4040;42.848;23.034;2022-09-25T23:44:12;2.80;;;2.57;;
7989;SDS011;4040;42.848;23.034;2022-09-25T23:50:01;5.03;;;2.70;;
7989;SDS011;4040;42.848;23.034;2022-09-25T23:55:52;3.00;;;2.60;;
